Time;durP1;ratioP1;P1;durP2;ratioP2;P2;SDS_P1;SDS_P2;PMS_P1;PMS_P2;Temp;Humidity;BMP_temperature;BMP_pressure;BME280_temperature;BME280_humidity;BME280_pressure;Samples;Min_cycle;Max_cycle;Signal;HPM_P1;HPM_P2
2022/07/20 00:02:00;;;;;;;10.55;2.30;;;;;;;;;;5031824;28;20028;-38
2022/07/20 00:04:25;;;;;;;7.60;2.22;;;;;;;;;;5032784;28;20043;-37
2022/07/20 00:06:51;;;;;;;6.75;2.03;;;;;;;;;;5032108;28;20063;-38
2022/07/20 00:12:01;;;;;;;11.85;2.13;;;;;;;;;;5033170;28;20040;-37
2022/07/20 00:14:26;;;;;;;9.80;2.17;;;;;;;;;;5032475;28;20026;-37
2022/07/20 00:16:51;;;;;;;13.18;2.45;;;;;;;;;;5031974;28;20049;-37
2022/07/20 00:19:17;;;;;;;8.25;1.75;;;;;;;;;;5033370;28;20025;-40
2022/07/20 00:21:42;;;;;;;8.32;2.15;;;;;;;;;;5032748;28;20625;-38
2022/07/20 00:24:08;;;;;;;7.72;2.10;;;;;;;;;;5032320;28;20056;-41
2022/07/20 00:26:33;;;;;;;10.55;2.10;;;;;;;;;;5031910;28;20061;-37
2022/07/20 00:28:58;;;;;;;8.20;2.20;;;;;;;;;;5032058;28;20036;-37
2022/07/20 00:31:24;;;;;;;7.10;2.25;;;;;;;;;;5032504;28;20065;-40
2022/07/20 00:33:49;;;;;;;9.90;2.10;;;;;;;;;;5030883;28;20017;-39
2022/07/20 00:36:16;;;;;;;13.77;1.92;;;;;;;;;;5032982;28;20031;-37
2022/07/20 00:38:41;;;;;;;9.93;2.13;;;;;;;;;;5032561;28;20072;-37
2022/07/20 00:41:06;;;;;;;8.13;2.00;;;;;;;;;;5031291;28;20411;-39
2022/07/20 00:44:05;;;;;;;8.07;2.05;;;;;;;;;;5030882;28;20017;-38
2022/07/20 00:46:32;;;;;;;7.65;2.00;;;;;;;;;;4998736;28;20125;-37
2022/07/20 00:48:57;;;;;;;8.48;2.08;;;;;;;;;;5031068;28;20022;-40
2022/07/20 00:51:23;;;;;;;5.00;2.15;;;;;;;;;;5032002;28;20041;-38
2022/07/20 00:53:49;;;;;;;7.68;1.92;;;;;;;;;;5030616;28;20021;-38
2022/07/20 00:56:16;;;;;;;17.55;3.30;;;;;;;;;;5032497;28;20110;-38
2022/07/20 00:58:41;;;;;;;18.52;3.80;;;;;;;;;;5032833;28;20059;-38
2022/07/20 01:01:06;;;;;;;10.80;2.58;;;;;;;;;;5032497;28;20017;-38
2022/07/20 01:03:33;;;;;;;6.47;2.30;;;;;;;;;;5031488;28;20071;-37
2022/07/20 01:05:58;;;;;;;11.88;2.47;;;;;;;;;;5031192;28;20014;-42
2022/07/20 01:08:24;;;;;;;10.88;2.60;;;;;;;;;;5032450;28;20083;-38
2022/07/20 01:10:49;;;;;;;8.63;2.20;;;;;;;;;;5032394;28;20076;-39
2022/07/20 01:13:15;;;;;;;6.90;2.03;;;;;;;;;;5031564;28;20029;-37
2022/07/20 01:15:40;;;;;;;7.95;2.20;;;;;;;;;;5031682;28;20079;-39
2022/07/20 01:18:05;;;;;;;5.22;2.17;;;;;;;;;;5030700;28;20032;-37
2022/07/20 01:20:32;;;;;;;5.63;2.25;;;;;;;;;;5030653;28;20037;-37
2022/07/20 01:22:58;;;;;;;11.18;2.22;;;;;;;;;;5031553;28;20033;-37
2022/07/20 01:25:23;;;;;;;4.72;1.80;;;;;;;;;;5030552;28;20018;-37
2022/07/20 01:27:48;;;;;;;4.78;1.80;;;;;;;;;;5032032;28;20487;-40
2022/07/20 01:30:14;;;;;;;8.52;2.22;;;;;;;;;;5031742;28;20022;-37
2022/07/20 01:32:39;;;;;;;5.63;2.33;;;;;;;;;;5031470;28;20033;-38
2022/07/20 01:35:05;;;;;;;5.18;2.00;;;;;;;;;;5031169;28;20025;-37
2022/07/20 01:37:30;;;;;;;3.47;1.77;;;;;;;;;;5031929;28;20021;-38
2022/07/20 01:39:56;;;;;;;6.30;1.63;;;;;;;;;;5031921;28;20124;-37
2022/07/20 01:42:21;;;;;;;11.65;2.20;;;;;;;;;;5031092;28;20033;-37
2022/07/20 01:44:47;;;;;;;10.68;2.28;;;;;;;;;;5031232;28;20026;-37
2022/07/20 01:47:12;;;;;;;7.88;1.90;;;;;;;;;;5032081;28;20131;-37
2022/07/20 01:49:37;;;;;;;6.07;2.42;;;;;;;;;;5031512;28;20029;-37
2022/07/20 01:52:03;;;;;;;7.38;2.58;;;;;;;;;;5030778;28;20116;-37
2022/07/20 01:54:28;;;;;;;3.72;1.83;;;;;;;;;;5029825;28;20021;-36
2022/07/20 01:56:53;;;;;;;6.30;2.17;;;;;;;;;;5031513;28;20014;-37
2022/07/20 01:59:19;;;;;;;7.10;2.90;;;;;;;;;;5030440;28;20499;-36
2022/07/20 02:01:44;;;;;;;12.55;2.10;;;;;;;;;;5031282;28;20036;-39
2022/07/20 02:04:09;;;;;;;7.65;2.20;;;;;;;;;;5030663;28;20501;-39
2022/07/20 02:06:35;;;;;;;6.70;2.17;;;;;;;;;;5029703;28;20021;-37
2022/07/20 02:09:00;;;;;;;8.60;2.17;;;;;;;;;;5030167;28;20025;-37
2022/07/20 02:11:26;;;;;;;7.28;3.10;;;;;;;;;;5031384;28;20038;-37
2022/07/20 02:13:51;;;;;;;6.07;1.83;;;;;;;;;;5029146;28;20103;-40
2022/07/20 02:16:16;;;;;;;5.90;2.15;;;;;;;;;;5030833;28;20013;-37
2022/07/20 02:18:42;;;;;;;11.57;2.72;;;;;;;;;;5029960;28;20100;-36
2022/07/20 02:21:07;;;;;;;5.63;2.05;;;;;;;;;;5030993;28;20501;-37
2022/07/20 02:23:33;;;;;;;7.93;2.50;;;;;;;;;;5029180;28;20059;-39
2022/07/20 02:25:58;;;;;;;9.02;2.83;;;;;;;;;;5029416;28;20022;-37
2022/07/20 02:28:23;;;;;;;7.50;2.08;;;;;;;;;;5031406;28;20021;-36
2022/07/20 02:30:49;;;;;;;4.75;1.98;;;;;;;;;;5031044;28;20695;-37
2022/07/20 02:33:14;;;;;;;5.22;1.95;;;;;;;;;;5030268;28;20492;-37
2022/07/20 02:35:39;;;;;;;7.60;2.35;;;;;;;;;;5029414;28;20052;-38
2022/07/20 02:38:05;;;;;;;10.73;2.55;;;;;;;;;;5031023;28;20053;-36
2022/07/20 02:40:30;;;;;;;5.57;2.50;;;;;;;;;;5031386;28;20025;-40
2022/07/20 02:42:56;;;;;;;11.00;2.97;;;;;;;;;;5029890;28;20032;-37
2022/07/20 02:45:22;;;;;;;7.57;2.25;;;;;;;;;;5029629;28;20055;-36
2022/07/20 02:47:47;;;;;;;11.10;2.35;;;;;;;;;;5031032;28;20103;-37
2022/07/20 02:50:13;;;;;;;11.43;2.53;;;;;;;;;;5029411;28;20025;-37
2022/07/20 02:52:39;;;;;;;10.63;3.75;;;;;;;;;;5028561;28;20128;-38
2022/07/20 02:55:05;;;;;;;4.63;2.10;;;;;;;;;;5030911;28;20028;-37
2022/07/20 02:57:31;;;;;;;7.07;2.28;;;;;;;;;;5030524;28;20072;-38
2022/07/20 02:59:56;;;;;;;3.13;2.03;;;;;;;;;;5029543;28;20025;-38
2022/07/20 03:02:21;;;;;;;10.70;2.72;;;;;;;;;;5028612;28;20112;-39
2022/07/20 03:04:47;;;;;;;13.23;3.53;;;;;;;;;;5030440;28;20106;-38
2022/07/20 03:07:12;;;;;;;6.25;2.92;;;;;;;;;;5029255;28;20033;-37
2022/07/20 03:09:38;;;;;;;10.30;2.10;;;;;;;;;;5030855;28;20017;-38
2022/07/20 03:12:03;;;;;;;3.33;2.20;;;;;;;;;;5030523;28;20528;-37
2022/07/20 03:14:28;;;;;;;6.05;2.50;;;;;;;;;;5029108;28;20075;-37
2022/07/20 03:16:54;;;;;;;6.40;2.08;;;;;;;;;;5030195;28;20071;-36
2022/07/20 03:19:19;;;;;;;7.72;2.53;;;;;;;;;;5030719;28;20076;-40
2022/07/20 03:21:45;;;;;;;8.27;2.50;;;;;;;;;;5030167;28;20357;-38
2022/07/20 03:24:10;;;;;;;7.45;2.22;;;;;;;;;;5030279;28;20048;-36
2022/07/20 03:26:35;;;;;;;7.28;2.20;;;;;;;;;;5030435;28;20456;-39
2022/07/20 03:29:00;;;;;;;3.95;2.10;;;;;;;;;;5033387;28;20021;-42
2022/07/20 03:31:26;;;;;;;7.63;2.55;;;;;;;;;;5032772;28;20041;-37
2022/07/20 03:33:51;;;;;;;4.95;2.00;;;;;;;;;;5033344;28;20021;-39
2022/07/20 03:36:17;;;;;;;7.97;2.45;;;;;;;;;;5032921;28;20487;-38
2022/07/20 03:38:42;;;;;;;8.93;2.28;;;;;;;;;;5033975;28;20526;-39
2022/07/20 03:41:07;;;;;;;7.28;2.67;;;;;;;;;;5034088;28;20028;-37
2022/07/20 03:43:33;;;;;;;11.80;2.30;;;;;;;;;;5031787;28;20017;-37
2022/07/20 03:45:58;;;;;;;5.97;1.83;;;;;;;;;;5032405;28;20491;-37
2022/07/20 03:48:23;;;;;;;8.90;2.47;;;;;;;;;;5034015;28;20021;-37
2022/07/20 03:50:49;;;;;;;6.55;1.90;;;;;;;;;;5032424;28;20108;-38
2022/07/20 03:53:14;;;;;;;8.10;2.08;;;;;;;;;;5031263;28;20723;-38
2022/07/20 03:55:39;;;;;;;4.75;1.73;;;;;;;;;;5032602;28;20024;-37
2022/07/20 03:58:05;;;;;;;10.93;3.72;;;;;;;;;;5033380;28;20033;-37
2022/07/20 04:00:30;;;;;;;6.82;2.03;;;;;;;;;;5032552;28;20017;-38
2022/07/20 04:02:56;;;;;;;9.50;2.33;;;;;;;;;;5032390;28;20014;-37
2022/07/20 04:05:22;;;;;;;11.75;2.63;;;;;;;;;;5033346;28;20017;-39
2022/07/20 04:07:47;;;;;;;4.78;2.42;;;;;;;;;;5031994;28;20091;-37
2022/07/20 04:10:12;;;;;;;7.63;1.88;;;;;;;;;;5032396;28;20017;-38
2022/07/20 04:12:38;;;;;;;11.20;3.35;;;;;;;;;;5032897;28;20112;-38
2022/07/20 04:15:03;;;;;;;10.45;2.67;;;;;;;;;;5031812;28;20113;-37
2022/07/20 04:17:29;;;;;;;25.92;4.28;;;;;;;;;;5015233;28;20108;-38
2022/07/20 04:19:54;;;;;;;33.75;4.68;;;;;;;;;;5033488;28;20079;-37
2022/07/20 04:22:20;;;;;;;31.67;3.80;;;;;;;;;;5032496;28;20025;-37
2022/07/20 04:24:45;;;;;;;27.15;3.25;;;;;;;;;;5031550;28;20022;-38
2022/07/20 04:27:10;;;;;;;17.75;4.35;;;;;;;;;;5033072;28;20022;-38
2022/07/20 04:29:36;;;;;;;16.10;3.10;;;;;;;;;;5031428;28;20028;-37
2022/07/20 04:32:01;;;;;;;28.05;3.22;;;;;;;;;;5032696;28;20044;-37
2022/07/20 04:34:27;;;;;;;21.63;4.43;;;;;;;;;;5032526;28;20427;-38
2022/07/20 04:36:53;;;;;;;13.25;2.90;;;;;;;;;;5032707;28;20052;-38
2022/07/20 04:39:18;;;;;;;21.02;3.00;;;;;;;;;;5030085;28;20449;-37
2022/07/20 04:41:43;;;;;;;9.63;2.33;;;;;;;;;;5031442;28;20481;-36
2022/07/20 04:44:09;;;;;;;10.18;2.90;;;;;;;;;;5032358;28;20481;-37
2022/07/20 04:46:34;;;;;;;13.95;3.60;;;;;;;;;;5014845;28;20144;-38
2022/07/20 04:48:59;;;;;;;13.05;3.40;;;;;;;;;;5032714;28;20492;-37
2022/07/20 04:51:25;;;;;;;30.10;3.78;;;;;;;;;;5031210;28;20041;-38
2022/07/20 04:53:51;;;;;;;16.13;3.05;;;;;;;;;;5031513;28;20018;-38
2022/07/20 04:56:18;;;;;;;6.18;2.30;;;;;;;;;;5032679;28;20025;-38
2022/07/20 04:58:44;;;;;;;11.18;2.97;;;;;;;;;;5032443;28;20385;-38
2022/07/20 05:01:09;;;;;;;17.77;3.67;;;;;;;;;;5032311;28;20018;-38
2022/07/20 05:03:35;;;;;;;16.95;3.47;;;;;;;;;;5031265;28;20479;-40
2022/07/20 05:06:00;;;;;;;9.70;2.38;;;;;;;;;;5030975;28;20018;-39
2022/07/20 05:08:25;;;;;;;9.23;2.50;;;;;;;;;;5030847;28;20023;-37
2022/07/20 05:10:51;;;;;;;9.52;2.90;;;;;;;;;;5032553;28;20500;-39
2022/07/20 05:13:16;;;;;;;8.20;3.30;;;;;;;;;;5031219;28;20040;-41
2022/07/20 05:15:42;;;;;;;13.10;4.55;;;;;;;;;;5030803;28;20527;-38
2022/07/20 05:18:07;;;;;;;16.80;5.25;;;;;;;;;;5030946;28;20100;-37
2022/07/20 05:20:32;;;;;;;15.88;4.30;;;;;;;;;;5031960;28;20032;-39
2022/07/20 05:22:57;;;;;;;16.73;4.88;;;;;;;;;;5031338;28;20075;-38
2022/07/20 05:25:23;;;;;;;20.50;4.63;;;;;;;;;;5031965;28;20044;-40
2022/07/20 05:27:48;;;;;;;18.23;5.07;;;;;;;;;;5032022;28;20286;-37
2022/07/20 05:30:13;;;;;;;13.43;4.00;;;;;;;;;;5032029;28;20026;-41
2022/07/20 05:32:39;;;;;;;12.73;4.75;;;;;;;;;;5030054;28;20112;-41
2022/07/20 05:35:05;;;;;;;14.80;4.68;;;;;;;;;;5030260;28;20092;-37
2022/07/20 05:37:31;;;;;;;21.13;5.18;;;;;;;;;;5030331;28;20040;-38
2022/07/20 05:39:56;;;;;;;17.70;4.63;;;;;;;;;;5031314;28;20049;-38
2022/07/20 05:42:21;;;;;;;13.93;3.70;;;;;;;;;;5031252;28;20024;-37
2022/07/20 05:44:47;;;;;;;17.55;3.90;;;;;;;;;;5030280;28;20014;-40
2022/07/20 05:47:12;;;;;;;89.90;8.90;;;;;;;;;;5027870;28;20053;-40
2022/07/20 05:49:37;;;;;;;16.00;3.70;;;;;;;;;;5024742;28;20075;-37
2022/07/20 05:52:03;;;;;;;13.68;3.67;;;;;;;;;;5029153;28;20033;-38
2022/07/20 05:54:29;;;;;;;16.85;3.08;;;;;;;;;;5027094;28;20032;-37
2022/07/20 05:56:54;;;;;;;15.15;3.22;;;;;;;;;;5024083;28;20018;-38
2022/07/20 05:59:19;;;;;;;9.43;3.25;;;;;;;;;;5023722;28;20029;-37
2022/07/20 06:01:45;;;;;;;11.05;2.92;;;;;;;;;;5025261;28;20028;-40
2022/07/20 06:04:11;;;;;;;14.35;2.92;;;;;;;;;;5026963;28;20729;-37
2022/07/20 06:06:36;;;;;;;9.88;2.78;;;;;;;;;;5025328;28;20022;-38
2022/07/20 06:09:02;;;;;;;15.60;2.95;;;;;;;;;;5028368;28;20105;-40
2022/07/20 06:11:28;;;;;;;14.23;2.80;;;;;;;;;;5031248;28;20041;-38
2022/07/20 06:13:53;;;;;;;21.93;3.47;;;;;;;;;;5025569;28;20517;-37
2022/07/20 06:16:18;;;;;;;11.57;2.30;;;;;;;;;;5026770;28;20267;-37
2022/07/20 06:18:44;;;;;;;7.70;2.33;;;;;;;;;;5025323;28;20036;-37
2022/07/20 06:21:09;;;;;;;79.20;37.88;;;;;;;;;;5029533;28;20255;-37
2022/07/20 06:23:34;;;;;;;38.60;19.47;;;;;;;;;;5028126;28;20088;-37
2022/07/20 06:25:59;;;;;;;21.85;7.78;;;;;;;;;;5030755;28;20289;-36
2022/07/20 06:28:25;;;;;;;13.57;4.97;;;;;;;;;;5028397;28;20029;-42
2022/07/20 06:30:50;;;;;;;10.87;2.77;;;;;;;;;;5026707;28;20267;-38
2022/07/20 06:33:15;;;;;;;12.82;3.33;;;;;;;;;;5026485;28;20290;-38
2022/07/20 06:35:41;;;;;;;13.27;2.22;;;;;;;;;;5029497;28;20028;-39
2022/07/20 06:38:06;;;;;;;11.98;2.42;;;;;;;;;;5028429;28;20484;-38
2022/07/20 06:40:31;;;;;;;26.07;3.80;;;;;;;;;;5027602;28;20024;-38
2022/07/20 06:42:57;;;;;;;10.27;2.50;;;;;;;;;;5024915;28;20057;-37
2022/07/20 06:45:22;;;;;;;11.00;2.00;;;;;;;;;;5022765;28;20041;-38
2022/07/20 06:47:49;;;;;;;12.00;2.70;;;;;;;;;;5021279;28;20103;-38
2022/07/20 06:50:14;;;;;;;15.75;1.98;;;;;;;;;;5027082;28;20269;-38
2022/07/20 06:52:40;;;;;;;11.77;2.20;;;;;;;;;;5022088;28;20041;-41
2022/07/20 06:55:05;;;;;;;11.07;2.00;;;;;;;;;;5023638;28;20026;-39
2022/07/20 06:57:31;;;;;;;13.23;2.60;;;;;;;;;;5027509;28;20021;-39
2022/07/20 06:59:56;;;;;;;9.18;1.90;;;;;;;;;;5028854;28;20143;-39
2022/07/20 07:02:22;;;;;;;9.32;2.08;;;;;;;;;;5026906;28;20104;-38
2022/07/20 07:04:48;;;;;;;9.82;2.88;;;;;;;;;;5033477;28;20029;-40
2022/07/20 07:07:13;;;;;;;7.93;2.13;;;;;;;;;;5033859;28;20465;-38
2022/07/20 07:09:38;;;;;;;16.23;2.60;;;;;;;;;;5032553;28;20041;-37
2022/07/20 07:12:04;;;;;;;11.37;2.40;;;;;;;;;;5032555;28;20536;-40
2022/07/20 07:14:29;;;;;;;8.52;1.95;;;;;;;;;;5030177;28;20353;-41
2022/07/20 07:16:55;;;;;;;9.88;2.47;;;;;;;;;;5032584;28;20018;-36
2022/07/20 07:19:20;;;;;;;7.65;2.08;;;;;;;;;;5032054;28;20653;-37
2022/07/20 07:21:46;;;;;;;9.85;2.05;;;;;;;;;;5026800;28;20029;-42
2022/07/20 07:24:11;;;;;;;7.65;2.53;;;;;;;;;;5029842;28;20079;-41
2022/07/20 07:26:37;;;;;;;8.85;2.25;;;;;;;;;;5030840;28;20104;-39
2022/07/20 07:29:02;;;;;;;14.27;3.00;;;;;;;;;;5030974;28;20496;-37
2022/07/20 07:31:27;;;;;;;9.82;1.52;;;;;;;;;;5026951;28;20037;-42
2022/07/20 07:33:53;;;;;;;11.97;2.93;;;;;;;;;;5031086;28;20025;-38
2022/07/20 07:36:18;;;;;;;6.15;1.52;;;;;;;;;;5032891;28;20021;-37
2022/07/20 07:38:43;;;;;;;6.00;1.63;;;;;;;;;;5032853;28;20022;-38
2022/07/20 07:41:09;;;;;;;18.27;2.20;;;;;;;;;;5031050;28;20116;-38
2022/07/20 07:43:34;;;;;;;13.43;2.17;;;;;;;;;;5030085;28;20021;-41
2022/07/20 07:45:59;;;;;;;13.55;1.90;;;;;;;;;;5031835;28;20049;-39
2022/07/20 07:48:26;;;;;;;4.43;1.30;;;;;;;;;;5031702;28;20068;-38
2022/07/20 07:50:52;;;;;;;10.25;2.10;;;;;;;;;;5030558;28;20381;-39
2022/07/20 07:53:17;;;;;;;7.85;1.70;;;;;;;;;;5030574;28;20494;-38
2022/07/20 07:55:42;;;;;;;5.93;1.52;;;;;;;;;;5030694;28;20033;-38
2022/07/20 07:58:09;;;;;;;14.63;2.17;;;;;;;;;;5032302;28;20029;-40
2022/07/20 08:00:35;;;;;;;14.35;1.75;;;;;;;;;;5032131;28;20017;-39
2022/07/20 08:03:01;;;;;;;6.85;1.58;;;;;;;;;;5029115;28;20018;-38
2022/07/20 08:05:26;;;;;;;10.30;1.70;;;;;;;;;;5035476;28;20087;-39
2022/07/20 08:07:51;;;;;;;3.22;1.30;;;;;;;;;;5028943;28;20384;-41
2022/07/20 08:10:17;;;;;;;5.53;1.87;;;;;;;;;;5029136;28;20033;-39
2022/07/20 08:12:46;;;;;;;7.32;1.65;;;;;;;;;;5028152;28;20348;-42
2022/07/20 08:15:11;;;;;;;15.43;1.40;;;;;;;;;;5030301;28;20021;-37
2022/07/20 08:17:37;;;;;;;8.23;1.70;;;;;;;;;;5028709;28;20088;-40
2022/07/20 08:20:05;;;;;;;5.90;1.17;;;;;;;;;;5030313;28;20022;-41
2022/07/20 08:22:31;;;;;;;9.57;1.40;;;;;;;;;;5027024;28;20055;-42
2022/07/20 08:24:56;;;;;;;3.50;1.45;;;;;;;;;;5029006;28;20029;-42
2022/07/20 08:27:21;;;;;;;3.40;1.27;;;;;;;;;;5027988;28;20396;-38
2022/07/20 08:29:47;;;;;;;6.30;1.10;;;;;;;;;;5027839;28;20053;-38
2022/07/20 08:32:13;;;;;;;9.95;1.60;;;;;;;;;;5031897;28;20037;-38
2022/07/20 08:34:38;;;;;;;3.78;1.10;;;;;;;;;;5029913;28;20030;-39
2022/07/20 08:37:04;;;;;;;1.83;0.90;;;;;;;;;;5031129;28;20075;-39
2022/07/20 08:39:29;;;;;;;2.38;1.23;;;;;;;;;;5032640;28;20017;-38
2022/07/20 08:41:54;;;;;;;1.93;1.00;;;;;;;;;;5031267;28;20025;-38
2022/07/20 08:44:20;;;;;;;5.78;1.17;;;;;;;;;;5029438;28;20302;-38
2022/07/20 08:46:45;;;;;;;21.98;2.13;;;;;;;;;;5030543;28;20507;-38
2022/07/20 08:49:13;;;;;;;4.13;1.00;;;;;;;;;;5032529;28;20108;-38
2022/07/20 08:51:39;;;;;;;7.57;1.00;;;;;;;;;;5028300;28;20176;-39
2022/07/20 08:54:05;;;;;;;4.38;0.90;;;;;;;;;;5028880;28;20112;-39
2022/07/20 08:56:30;;;;;;;3.67;1.10;;;;;;;;;;5030955;28;20026;-39
2022/07/20 08:58:56;;;;;;;3.92;1.30;;;;;;;;;;5031314;28;20030;-38
2022/07/20 09:01:21;;;;;;;3.37;1.40;;;;;;;;;;5030939;28;20025;-38
2022/07/20 09:04:03;;;;;;;10.55;1.48;;;;;;;;;;5030347;28;20265;-39
2022/07/20 09:06:28;;;;;;;7.65;1.45;;;;;;;;;;5029283;28;20436;-38
2022/07/20 09:09:05;;;;;;;3.20;1.20;;;;;;;;;;5029300;28;20108;-40
2022/07/20 09:11:31;;;;;;;4.15;1.27;;;;;;;;;;5028749;28;20099;-39
2022/07/20 09:13:57;;;;;;;4.72;1.40;;;;;;;;;;5028856;28;20017;-40
2022/07/20 09:16:33;;;;;;;7.57;1.52;;;;;;;;;;5031012;28;20566;-39
2022/07/20 09:18:58;;;;;;;10.05;1.30;;;;;;;;;;5026721;28;20421;-39
2022/07/20 09:21:30;;;;;;;7.13;1.33;;;;;;;;;;5028368;28;20029;-41
2022/07/20 09:24:00;;;;;;;2.47;1.10;;;;;;;;;;5029493;28;20034;-38
2022/07/20 09:26:27;;;;;;;4.03;1.10;;;;;;;;;;5028641;28;20484;-39
2022/07/20 09:28:54;;;;;;;2.83;1.10;;;;;;;;;;5030019;28;20053;-37
2022/07/20 09:31:36;;;;;;;3.25;1.30;;;;;;;;;;5029646;28;20104;-40
2022/07/20 09:34:01;;;;;;;6.93;1.30;;;;;;;;;;5030153;28;20064;-37
2022/07/20 09:36:28;;;;;;;5.18;1.10;;;;;;;;;;5031725;28;20057;-38
2022/07/20 09:38:54;;;;;;;9.68;1.40;;;;;;;;;;5031263;28;20017;-39
2022/07/20 09:41:27;;;;;;;3.60;1.05;;;;;;;;;;5031561;28;20030;-39
2022/07/20 09:43:52;;;;;;;4.93;1.35;;;;;;;;;;5030346;28;20457;-38
2022/07/20 09:46:18;;;;;;;13.32;1.75;;;;;;;;;;5022609;28;20117;-40
2022/07/20 09:48:49;;;;;;;4.90;1.70;;;;;;;;;;5026138;28;20021;-37
2022/07/20 09:51:24;;;;;;;9.50;1.63;;;;;;;;;;5025473;28;20025;-41
2022/07/20 09:53:50;;;;;;;1.83;1.08;;;;;;;;;;5016741;28;20452;-39
2022/07/20 09:56:16;;;;;;;5.60;1.60;;;;;;;;;;5015964;28;20366;-40
2022/07/20 09:58:46;;;;;;;2.95;1.25;;;;;;;;;;5031185;28;20075;-39
2022/07/20 10:01:15;;;;;;;9.15;1.42;;;;;;;;;;5031197;28;20071;-38
2022/07/20 10:03:41;;;;;;;4.18;1.30;;;;;;;;;;5030109;28;20017;-38
2022/07/20 10:06:06;;;;;;;4.13;1.42;;;;;;;;;;5031139;28;20744;-38
2022/07/20 10:08:32;;;;;;;2.22;1.38;;;;;;;;;;5025498;28;20453;-38
2022/07/20 10:10:57;;;;;;;3.08;1.40;;;;;;;;;;5011901;28;20025;-40
2022/07/20 10:13:23;;;;;;;4.70;1.73;;;;;;;;;;5010562;28;20540;-39
2022/07/20 10:15:53;;;;;;;8.15;1.30;;;;;;;;;;5011801;28;20056;-38
2022/07/20 10:18:19;;;;;;;2.35;1.45;;;;;;;;;;5029189;28;20030;-38
2022/07/20 10:20:44;;;;;;;3.70;1.20;;;;;;;;;;5028193;28;20030;-39
2022/07/20 10:23:15;;;;;;;1.13;1.00;;;;;;;;;;5029098;28;20025;-39
2022/07/20 10:25:45;;;;;;;3.53;1.20;;;;;;;;;;5031416;28;20384;-41
2022/07/20 10:28:23;;;;;;;2.05;1.40;;;;;;;;;;5028015;28;20028;-40
2022/07/20 10:30:55;;;;;;;13.20;1.70;;;;;;;;;;5027678;28;20021;-39
2022/07/20 10:33:21;;;;;;;2.33;1.60;;;;;;;;;;5027836;28;20038;-38
2022/07/20 10:35:48;;;;;;;3.88;1.38;;;;;;;;;;5026524;28;20082;-41
2022/07/20 10:38:20;;;;;;;4.43;1.60;;;;;;;;;;5031778;28;20029;-39
2022/07/20 10:44:08;;;;;;;8.02;1.75;;;;;;;;;;5014368;28;20100;-39
2022/07/20 10:46:34;;;;;;;2.60;1.27;;;;;;;;;;5014769;28;20085;-38
2022/07/20 10:48:59;;;;;;;2.30;1.35;;;;;;;;;;5014329;28;20069;-37
2022/07/20 10:51:25;;;;;;;3.70;1.60;;;;;;;;;;5027520;28;20708;-38
2022/07/20 10:53:50;;;;;;;4.87;1.53;;;;;;;;;;5033664;28;20286;-37
2022/07/20 10:56:27;;;;;;;2.63;1.33;;;;;;;;;;5029309;28;20741;-37
2022/07/20 10:58:58;;;;;;;9.73;1.60;;;;;;;;;;5033554;28;20052;-39
2022/07/20 11:01:23;;;;;;;8.30;1.88;;;;;;;;;;5031799;28;20097;-39
2022/07/20 11:03:49;;;;;;;29.73;4.35;;;;;;;;;;5029703;28;20139;-40
2022/07/20 11:06:16;;;;;;;3.25;1.65;;;;;;;;;;5034215;28;20025;-37
2022/07/20 11:08:49;;;;;;;5.07;1.42;;;;;;;;;;5029462;28;20068;-38
2022/07/20 11:11:18;;;;;;;4.32;1.73;;;;;;;;;;5032200;28;20018;-36
2022/07/20 11:13:46;;;;;;;2.92;1.70;;;;;;;;;;5029089;28;20025;-37
2022/07/20 11:16:12;;;;;;;7.32;1.30;;;;;;;;;;5031592;28;20021;-40
2022/07/20 11:18:38;;;;;;;4.97;1.35;;;;;;;;;;5033152;28;20025;-38
2022/07/20 11:21:05;;;;;;;5.13;1.45;;;;;;;;;;5032551;28;20028;-37
2022/07/20 11:23:39;;;;;;;5.85;1.67;;;;;;;;;;5031005;28;20030;-39
2022/07/20 11:26:04;;;;;;;5.07;1.48;;;;;;;;;;5033524;28;20021;-37
2022/07/20 11:28:31;;;;;;;3.03;1.40;;;;;;;;;;5032853;28;20486;-41
2022/07/20 11:30:57;;;;;;;4.70;1.50;;;;;;;;;;5063483;28;20025;-37
2022/07/20 11:33:27;;;;;;;4.60;1.50;;;;;;;;;;5031387;28;20040;-37
2022/07/20 11:35:53;;;;;;;4.88;1.90;;;;;;;;;;5033730;28;20025;-37
2022/07/20 11:38:18;;;;;;;3.08;1.67;;;;;;;;;;5031678;28;20033;-41
2022/07/20 11:40:55;;;;;;;8.85;1.50;;;;;;;;;;5032456;28;20078;-38
2022/07/20 11:43:20;;;;;;;2.28;1.10;;;;;;;;;;5030489;28;20108;-38
2022/07/20 11:45:45;;;;;;;4.37;1.50;;;;;;;;;;5031555;28;20533;-38
2022/07/20 11:48:15;;;;;;;3.10;1.20;;;;;;;;;;5032777;28;20775;-37
2022/07/20 11:50:40;;;;;;;2.28;1.30;;;;;;;;;;5031401;28;20037;-40
2022/07/20 11:53:20;;;;;;;3.40;1.35;;;;;;;;;;5032743;28;20381;-37
2022/07/20 11:55:46;;;;;;;4.63;2.05;;;;;;;;;;5031612;28;20029;-37
2022/07/20 11:58:11;;;;;;;3.25;1.30;;;;;;;;;;5032877;28;20025;-37
2022/07/20 12:00:37;;;;;;;4.03;1.30;;;;;;;;;;5030578;28;20036;-37
2022/07/20 12:03:02;;;;;;;5.90;1.50;;;;;;;;;;5028952;28;20021;-40
2022/07/20 12:05:28;;;;;;;3.70;1.67;;;;;;;;;;5031401;28;20025;-38
2022/07/20 12:08:10;;;;;;;11.18;1.75;;;;;;;;;;5032421;28;20026;-42
2022/07/20 12:10:35;;;;;;;4.78;1.40;;;;;;;;;;5028499;28;20054;-43
2022/07/20 12:13:05;;;;;;;3.22;1.50;;;;;;;;;;5028014;28;20119;-38
2022/07/20 12:15:30;;;;;;;18.63;1.40;;;;;;;;;;5029291;28;20045;-39
2022/07/20 12:17:55;;;;;;;3.47;1.40;;;;;;;;;;5033042;28;20110;-42
2022/07/20 12:20:21;;;;;;;2.67;1.10;;;;;;;;;;5031614;28;20263;-37
2022/07/20 12:22:54;;;;;;;1.52;1.15;;;;;;;;;;5030525;28;20057;-38
2022/07/20 12:25:19;;;;;;;1.85;1.20;;;;;;;;;;5012131;28;20362;-37
2022/07/20 12:27:45;;;;;;;3.65;1.45;;;;;;;;;;5029143;28;20028;-37
2022/07/20 12:30:24;;;;;;;2.63;0.90;;;;;;;;;;5032476;28;20068;-38
2022/07/20 12:33:02;;;;;;;1.70;1.20;;;;;;;;;;5031120;28;20038;-38
2022/07/20 12:35:27;;;;;;;2.25;1.48;;;;;;;;;;5030168;28;20044;-39
2022/07/20 12:37:55;;;;;;;4.40;1.30;;;;;;;;;;5026661;28;20474;-39
2022/07/20 12:40:35;;;;;;;2.70;1.42;;;;;;;;;;5030343;28;20083;-38
2022/07/20 12:44:43;;;;;;;4.38;1.30;;;;;;;;;;5062295;27;1355290;-37
2022/07/20 12:47:08;;;;;;;2.58;1.40;;;;;;;;;;5108554;28;20381;-38
2022/07/20 12:49:34;;;;;;;4.88;1.27;;;;;;;;;;5090512;28;20028;-37
2022/07/20 12:51:59;;;;;;;4.70;1.25;;;;;;;;;;5088321;28;20024;-37
2022/07/20 12:54:25;;;;;;;2.05;1.00;;;;;;;;;;5075271;28;20380;-40
2022/07/20 12:56:51;;;;;;;6.35;1.30;;;;;;;;;;5082851;28;20673;-38
2022/07/20 12:59:17;;;;;;;2.63;1.58;;;;;;;;;;5079644;28;20364;-37
2022/07/20 13:01:43;;;;;;;16.10;2.13;;;;;;;;;;5072645;28;20077;-37
2022/07/20 13:04:09;;;;;;;320.67;291.67;;;;;;;;;;5098358;28;20277;-36
2022/07/20 13:06:35;;;;;;;752.67;683.38;;;;;;;;;;5079761;28;20702;-36
2022/07/20 13:09:01;;;;;;;1067.53;967.42;;;;;;;;;;5105746;28;20060;-37
2022/07/20 13:11:26;;;;;;;1170.72;999.90;;;;;;;;;;5102242;28;20070;-36
2022/07/20 13:13:52;;;;;;;1161.38;999.90;;;;;;;;;;5105214;28;20020;-38
2022/07/20 13:16:17;;;;;;;1180.90;999.90;;;;;;;;;;5103577;28;20024;-36
2022/07/20 13:18:43;;;;;;;1176.60;999.90;;;;;;;;;;5106098;28;20024;-37
2022/07/20 13:21:08;;;;;;;1067.40;964.80;;;;;;;;;;5101741;28;20034;-38
2022/07/20 13:23:33;;;;;;;7.45;2.15;;;;;;;;;;5087873;28;20059;-38
2022/07/20 13:25:59;;;;;;;14.77;2.83;;;;;;;;;;5071162;28;20023;-37
2022/07/20 13:28:24;;;;;;;11.23;2.57;;;;;;;;;;5097048;28;20758;-38
2022/07/20 13:30:50;;;;;;;7.53;1.50;;;;;;;;;;5086263;28;20008;-37
2022/07/20 13:33:15;;;;;;;6.97;1.67;;;;;;;;;;5083986;28;20020;-37
2022/07/20 13:35:43;;;;;;;5.25;1.75;;;;;;;;;;5094866;28;20471;-39
2022/07/20 13:38:09;;;;;;;4.95;1.90;;;;;;;;;;5096220;28;20061;-38
2022/07/20 13:40:34;;;;;;;2.63;1.60;;;;;;;;;;5086081;28;20392;-37
2022/07/20 13:43:00;;;;;;;5.32;1.60;;;;;;;;;;5091118;28;20082;-39
2022/07/20 13:45:25;;;;;;;4.22;1.83;;;;;;;;;;5085453;28;20046;-40
2022/07/20 13:47:50;;;;;;;4.25;1.50;;;;;;;;;;5095870;28;20044;-41
2022/07/20 13:50:16;;;;;;;6.13;1.80;;;;;;;;;;5098288;28;20024;-37
2022/07/20 13:52:41;;;;;;;4.38;1.67;;;;;;;;;;5100175;28;20020;-40
2022/07/20 13:55:07;;;;;;;4.27;1.57;;;;;;;;;;5099105;28;20095;-38
2022/07/20 13:57:33;;;;;;;1.90;1.25;;;;;;;;;;5081508;28;20652;-38
2022/07/20 13:59:58;;;;;;;10.15;1.92;;;;;;;;;;5082887;28;20035;-38
2022/07/20 14:02:24;;;;;;;4.53;1.50;;;;;;;;;;5071873;28;20232;-40
2022/07/20 14:04:49;;;;;;;4.17;1.67;;;;;;;;;;5069807;28;20132;-38
2022/07/20 14:07:14;;;;;;;4.40;1.63;;;;;;;;;;5073548;28;20242;-37
2022/07/20 14:09:40;;;;;;;4.37;1.57;;;;;;;;;;5073281;28;20250;-38
2022/07/20 14:12:05;;;;;;;4.30;1.70;;;;;;;;;;5072296;28;20302;-39
2022/07/20 14:14:31;;;;;;;2.63;1.50;;;;;;;;;;5073040;28;20403;-40
2022/07/20 14:16:56;;;;;;;5.30;1.47;;;;;;;;;;5053159;28;20024;-38
2022/07/20 14:19:22;;;;;;;5.72;1.45;;;;;;;;;;5076205;28;20295;-41
2022/07/20 14:21:47;;;;;;;2.35;1.38;;;;;;;;;;5071893;28;20674;-38
2022/07/20 14:24:13;;;;;;;2.13;1.42;;;;;;;;;;5071873;28;20039;-38
2022/07/20 14:26:39;;;;;;;6.35;1.55;;;;;;;;;;5065919;28;20023;-40
2022/07/20 14:29:04;;;;;;;2.22;1.70;;;;;;;;;;5066524;28;20024;-40
2022/07/20 14:31:31;;;;;;;8.85;1.85;;;;;;;;;;5069552;28;20020;-40
2022/07/20 14:33:56;;;;;;;4.43;1.63;;;;;;;;;;5063862;28;20411;-40
2022/07/20 14:36:22;;;;;;;6.97;1.40;;;;;;;;;;5068072;28;20035;-40
2022/07/20 14:38:48;;;;;;;6.43;1.63;;;;;;;;;;5066646;28;20019;-43
2022/07/20 14:41:13;;;;;;;6.35;1.70;;;;;;;;;;5070465;28;20047;-38